Time;durP1;ratioP1;P1;durP2;ratioP2;P2;SDS_P1;SDS_P2;PMS_P1;PMS_P2;Temp;Humidity;BMP_temperature;BMP_pressure;BME280_temperature;BME280_humidity;BME280_pressure;Samples;Min_cycle;Max_cycle;Signal;HPM_P1;HPM_P2
2023/03/16 00:02:13;;;;;;;34.92;19.83;;;0.10;99.90;;;;;;4909324;29;20209;-82
2023/03/16 00:04:40;;;;;;;25.20;20.00;;;0.10;99.90;;;;;;4907767;29;20268;-82
2023/03/16 00:07:09;;;;;;;33.72;21.05;;;0.10;99.90;;;;;;4909772;29;20201;-84
2023/03/16 00:09:41;;;;;;;30.75;21.63;;;0.20;99.90;;;;;;4909171;29;20236;-81
2023/03/16 00:12:17;;;;;;;31.10;20.70;;;0.30;99.90;;;;;;4909798;29;20257;-82
2023/03/16 00:14:46;;;;;;;30.48;19.40;;;0.20;99.90;;;;;;4916471;29;20200;-80
2023/03/16 00:17:20;;;;;;;34.78;18.27;;;0.10;99.90;;;;;;4905267;29;20240;-79
2023/03/16 00:19:50;;;;;;;29.02;19.73;;;0.10;99.90;;;;;;4916045;29;20216;-80
2023/03/16 00:22:17;;;;;;;29.05;19.02;;;0.10;99.90;;;;;;4910194;29;20204;-80
2023/03/16 00:24:44;;;;;;;29.05;19.85;;;0.10;99.90;;;;;;4915959;29;20237;-82
2023/03/16 00:27:16;;;;;;;30.65;19.95;;;-0.10;99.90;;;;;;4913805;29;20213;-80
2023/03/16 00:29:47;;;;;;;35.00;21.45;;;-0.20;99.90;;;;;;4907194;29;20249;-82
2023/03/16 00:32:19;;;;;;;31.30;19.42;;;-0.10;99.90;;;;;;4906292;29;20267;-82
2023/03/16 00:34:47;;;;;;;27.13;17.92;;;0.00;99.90;;;;;;4908917;29;20212;-79
2023/03/16 00:37:16;;;;;;;31.27;18.23;;;0.00;99.90;;;;;;4907551;29;20220;-80
2023/03/16 00:39:45;;;;;;;31.23;19.15;;;0.00;99.90;;;;;;4920341;29;20212;-82
2023/03/16 00:42:14;;;;;;;28.45;17.52;;;-0.10;99.90;;;;;;4908549;29;20540;-81
2023/03/16 00:44:41;;;;;;;29.60;16.00;;;-0.20;99.90;;;;;;4913439;29;20213;-80
2023/03/16 00:47:09;;;;;;;30.92;17.98;;;-0.20;99.90;;;;;;4914736;29;20267;-82
2023/03/16 00:49:35;;;;;;;33.38;15.90;;;-0.20;99.90;;;;;;4913594;29;20320;-79
2023/03/16 00:52:04;;;;;;;21.45;15.27;;;-0.20;99.90;;;;;;4916110;29;20350;-80
2023/03/16 00:54:31;;;;;;;31.88;16.23;;;-0.20;99.90;;;;;;4920497;29;20210;-81
2023/03/16 00:56:59;;;;;;;23.15;15.73;;;-0.20;99.90;;;;;;4921808;29;20209;-83
2023/03/16 00:59:26;;;;;;;30.55;15.95;;;-0.40;99.90;;;;;;4913126;29;20201;-81
2023/03/16 01:01:54;;;;;;;19.80;14.15;;;-0.30;99.90;;;;;;4920784;29;20208;-82
2023/03/16 01:04:22;;;;;;;19.80;16.10;;;-0.30;99.90;;;;;;4908535;29;20233;-82
2023/03/16 01:06:48;;;;;;;20.42;15.20;;;-0.30;99.90;;;;;;4914476;29;20432;-81
2023/03/16 01:09:16;;;;;;;19.33;14.32;;;-0.50;99.90;;;;;;4909806;29;20618;-82
2023/03/16 01:11:42;;;;;;;20.17;12.90;;;-0.30;99.90;;;;;;4919500;29;20215;-81
2023/03/16 01:14:09;;;;;;;16.33;12.77;;;-0.20;99.90;;;;;;4913105;29;20233;-81
2023/03/16 01:16:36;;;;;;;22.02;14.13;;;-0.20;99.90;;;;;;4919291;29;20208;-82
2023/03/16 01:19:03;;;;;;;20.48;13.80;;;-0.20;99.90;;;;;;4912415;29;20217;-80
2023/03/16 01:21:32;;;;;;;21.88;14.55;;;-0.20;99.90;;;;;;4916026;29;20212;-81
2023/03/16 01:23:59;;;;;;;23.20;14.82;;;-0.10;99.90;;;;;;4910978;29;20320;-81
2023/03/16 01:26:26;;;;;;;22.48;14.02;;;-0.20;99.90;;;;;;4916839;29;20216;-82
2023/03/16 01:28:53;;;;;;;17.75;11.65;;;-0.10;99.90;;;;;;4919235;29;20240;-80
2023/03/16 01:31:21;;;;;;;19.42;14.48;;;-0.10;99.90;;;;;;4913061;29;20242;-81
2023/03/16 01:33:48;;;;;;;24.85;13.85;;;-0.20;99.90;;;;;;4922520;29;20369;-81
2023/03/16 01:36:17;;;;;;;21.33;13.50;;;-0.40;99.90;;;;;;4917275;29;20489;-81
2023/03/16 01:38:44;;;;;;;26.73;14.88;;;-0.50;99.90;;;;;;4918451;29;20527;-82
2023/03/16 01:41:12;;;;;;;17.42;12.02;;;-0.30;99.90;;;;;;4917708;29;20268;-79
2023/03/16 01:43:40;;;;;;;21.00;13.70;;;-0.20;99.90;;;;;;4929187;29;20248;-82
2023/03/16 01:46:18;;;;;;;15.75;13.57;;;-0.20;99.90;;;;;;4934091;29;20195;-82
2023/03/16 01:49:07;;;;;;;22.80;14.38;;;-0.40;99.90;;;;;;4924376;29;20244;-83
2023/03/16 01:52:01;;;;;;;21.27;13.35;;;-0.40;99.90;;;;;;4923854;29;20236;-81
2023/03/16 01:54:41;;;;;;;19.00;13.15;;;-0.40;99.90;;;;;;4921207;29;20232;-82
2023/03/16 01:57:13;;;;;;;21.33;13.18;;;-0.30;99.90;;;;;;4925923;29;20506;-81
2023/03/16 02:00:17;;;;;;;19.45;11.95;;;-0.20;99.90;;;;;;4903697;29;20213;-81
2023/03/16 02:02:51;;;;;;;16.75;10.23;;;-0.30;99.90;;;;;;4912702;29;20209;-81
2023/03/16 02:05:21;;;;;;;17.40;11.95;;;-0.40;99.90;;;;;;4917146;29;20245;-80
2023/03/16 02:07:50;;;;;;;18.48;13.70;;;-0.50;99.90;;;;;;4913104;29;20212;-81
2023/03/16 02:10:19;;;;;;;18.92;13.00;;;-0.40;99.90;;;;;;4913017;29;20462;-81
2023/03/16 02:12:46;;;;;;;17.33;12.10;;;-0.50;99.90;;;;;;4916198;29;20284;-81
2023/03/16 02:15:14;;;;;;;16.08;11.65;;;-0.50;99.90;;;;;;4912411;29;20216;-79
2023/03/16 02:17:43;;;;;;;18.20;11.00;;;-0.40;99.90;;;;;;4914209;29;20224;-79
2023/03/16 02:20:42;;;;;;;14.98;11.13;;;-0.20;99.90;;;;;;4909508;29;20253;-80
2023/03/16 02:23:17;;;;;;;24.23;13.75;;;-0.30;99.90;;;;;;4878337;29;20223;-79
2023/03/16 02:25:52;;;;;;;16.35;11.60;;;-0.50;99.90;;;;;;4913722;29;20212;-79
2023/03/16 02:28:36;;;;;;;21.27;10.82;;;-0.40;99.90;;;;;;4912402;29;20196;-81
2023/03/16 02:31:05;;;;;;;16.50;11.88;;;-0.50;99.90;;;;;;4907984;29;20382;-81
2023/03/16 02:33:33;;;;;;;15.07;10.95;;;-0.60;99.90;;;;;;4906956;29;20509;-81
2023/03/16 02:36:00;;;;;;;13.40;9.95;;;-0.50;99.90;;;;;;4910195;29;20228;-81
2023/03/16 02:38:27;;;;;;;20.02;11.43;;;-0.50;99.90;;;;;;4921071;29;20216;-81
2023/03/16 02:40:59;;;;;;;11.80;8.60;;;-0.40;99.90;;;;;;4919222;29;20260;-83
2023/03/16 02:43:32;;;;;;;20.33;11.48;;;-0.60;99.90;;;;;;4921019;29;20209;-80
2023/03/16 02:46:03;;;;;;;14.85;11.65;;;-0.50;99.90;;;;;;4906956;29;20516;-80
2023/03/16 02:49:23;;;;;;;17.20;11.95;;;-0.30;99.90;;;;;;4908019;29;20253;-82
2023/03/16 02:51:51;;;;;;;20.15;12.07;;;-0.40;99.90;;;;;;4914776;29;20212;-80
2023/03/16 02:54:18;;;;;;;17.33;11.52;;;-0.40;99.90;;;;;;4917496;29;20497;-82
2023/03/16 02:56:46;;;;;;;15.85;11.18;;;-0.40;99.90;;;;;;4921161;29;20255;-82
2023/03/16 02:59:13;;;;;;;19.77;10.75;;;-0.60;99.90;;;;;;4923469;29;20197;-83
2023/03/16 03:01:40;;;;;;;14.65;11.00;;;-0.60;99.90;;;;;;4932364;29;20243;-83
2023/03/16 03:04:08;;;;;;;14.65;10.82;;;-0.50;99.90;;;;;;4932179;29;20237;-82
2023/03/16 03:06:36;;;;;;;17.75;11.68;;;-0.50;99.90;;;;;;4928681;29;20208;-80
2023/03/16 03:09:04;;;;;;;18.13;10.75;;;-0.40;99.90;;;;;;4921633;29;20236;-82
2023/03/16 03:11:30;;;;;;;17.48;10.23;;;-0.40;99.90;;;;;;4915557;29;20249;-80
2023/03/16 03:13:58;;;;;;;12.63;9.23;;;-0.30;99.90;;;;;;4909500;29;20525;-79
2023/03/16 03:16:24;;;;;;;16.83;10.48;;;-0.30;99.90;;;;;;4914672;29;20228;-81
2023/03/16 03:18:52;;;;;;;16.95;9.35;;;-0.40;99.90;;;;;;4918529;29;20248;-79
2023/03/16 03:21:18;;;;;;;14.90;9.15;;;-0.40;99.90;;;;;;4920802;29;20212;-80
2023/03/16 03:23:45;;;;;;;20.48;11.25;;;-0.40;99.90;;;;;;4920148;29;20212;-83
2023/03/16 03:26:15;;;;;;;14.38;9.50;;;-0.50;99.90;;;;;;4906312;29;20208;-80
2023/03/16 03:28:43;;;;;;;17.55;10.35;;;-0.60;99.90;;;;;;4916738;29;20212;-79
2023/03/16 03:31:14;;;;;;;13.35;9.48;;;-0.40;99.90;;;;;;4917694;29;20231;-80
2023/03/16 03:33:41;;;;;;;24.58;11.43;;;-0.40;99.90;;;;;;4909963;29;20495;-81
2023/03/16 03:36:10;;;;;;;16.30;11.70;;;-0.50;99.90;;;;;;4913174;29;20212;-81
2023/03/16 03:38:37;;;;;;;16.42;10.15;;;-0.60;99.90;;;;;;4919117;29;20299;-82
2023/03/16 03:41:07;;;;;;;17.27;9.50;;;-0.60;99.90;;;;;;4911739;29;20523;-80
2023/03/16 03:43:34;;;;;;;22.73;10.15;;;-0.50;99.90;;;;;;4915578;29;20216;-81
2023/03/16 03:46:02;;;;;;;13.48;9.57;;;-0.50;99.90;;;;;;4911036;29;20220;-80
2023/03/16 03:48:29;;;;;;;16.95;8.90;;;-0.40;99.90;;;;;;4910795;29;20216;-82
2023/03/16 03:50:56;;;;;;;14.32;9.80;;;-0.50;99.90;;;;;;4912925;29;20233;-82
2023/03/16 03:53:24;;;;;;;13.00;9.82;;;-0.50;99.90;;;;;;4920418;29;20216;-82
2023/03/16 03:55:51;;;;;;;10.95;9.85;;;-0.50;99.90;;;;;;4912688;29;20212;-81
2023/03/16 03:58:18;;;;;;;16.73;9.68;;;-0.50;99.90;;;;;;4916498;29;20374;-82
2023/03/16 04:00:45;;;;;;;16.17;9.00;;;-0.50;99.90;;;;;;4913455;29;20212;-82
2023/03/16 04:03:12;;;;;;;13.93;8.60;;;-0.80;99.90;;;;;;4909058;29;20213;-81
2023/03/16 04:05:40;;;;;;;16.10;9.63;;;-0.70;99.90;;;;;;4913911;29;20215;-82
2023/03/16 04:08:07;;;;;;;16.48;9.43;;;-0.80;99.90;;;;;;4920705;29;20228;-81
2023/03/16 04:10:34;;;;;;;12.63;9.20;;;-0.70;99.90;;;;;;4908238;29;20557;-80
2023/03/16 04:13:01;;;;;;;10.00;8.07;;;-0.50;99.90;;;;;;4916928;29;20445;-79
2023/03/16 04:15:29;;;;;;;16.67;10.02;;;-0.60;99.90;;;;;;4919632;29;20224;-81
2023/03/16 04:17:55;;;;;;;11.10;8.35;;;-0.50;99.90;;;;;;4918211;29;20204;-78
2023/03/16 04:20:22;;;;;;;12.38;9.20;;;-0.40;99.90;;;;;;4910077;29;20498;-80
2023/03/16 04:22:57;;;;;;;15.95;8.73;;;-0.40;99.90;;;;;;4916328;29;20267;-81
2023/03/16 04:25:29;;;;;;;11.05;8.23;;;-0.30;99.90;;;;;;4915983;29;20238;-79
2023/03/16 04:27:56;;;;;;;16.67;12.02;;;-0.30;99.90;;;;;;4913921;29;20216;-79
2023/03/16 04:30:23;;;;;;;19.50;9.70;;;-0.40;99.90;;;;;;4922098;29;20247;-79
2023/03/16 04:32:51;;;;;;;11.02;8.90;;;-0.40;99.90;;;;;;4922206;29;20282;-82
2023/03/16 04:35:18;;;;;;;13.73;9.45;;;-0.40;99.90;;;;;;4919117;29;20531;-82
2023/03/16 04:37:45;;;;;;;18.25;9.43;;;-0.40;99.90;;;;;;4911083;29;20249;-82
2023/03/16 04:40:15;;;;;;;12.65;9.55;;;-0.30;99.90;;;;;;4921169;29;20393;-81
2023/03/16 04:42:46;;;;;;;19.80;9.50;;;-0.30;99.90;;;;;;4924039;29;20208;-81
2023/03/16 04:45:14;;;;;;;12.38;9.43;;;-0.20;99.90;;;;;;4923830;29;20244;-83
2023/03/16 04:47:41;;;;;;;15.23;9.43;;;-0.30;99.90;;;;;;4919095;29;20212;-83
2023/03/16 04:50:09;;;;;;;18.70;10.35;;;-0.40;99.90;;;;;;4921607;29;20232;-83
2023/03/16 04:52:37;;;;;;;14.07;9.82;;;-0.50;99.90;;;;;;4917577;29;20217;-83
2023/03/16 04:55:04;;;;;;;22.13;11.38;;;-0.50;99.90;;;;;;4914291;29;20496;-81
2023/03/16 04:57:31;;;;;;;23.88;10.60;;;-0.40;99.90;;;;;;4912716;29;20212;-83
2023/03/16 04:59:58;;;;;;;14.48;10.52;;;-0.30;99.90;;;;;;4915031;29;20204;-83
2023/03/16 05:02:25;;;;;;;14.55;10.40;;;-0.40;99.90;;;;;;4913125;29;20217;-82
2023/03/16 05:04:54;;;;;;;26.20;12.10;;;-0.40;99.90;;;;;;4916547;29;20244;-82
2023/03/16 05:07:20;;;;;;;12.77;9.50;;;-0.50;99.90;;;;;;4917551;29;20212;-83
2023/03/16 05:09:47;;;;;;;19.40;10.50;;;-0.40;99.90;;;;;;4920776;29;20441;-83
2023/03/16 05:12:14;;;;;;;16.00;10.27;;;-0.50;99.90;;;;;;4917592;29;20227;-84
2023/03/16 05:14:41;;;;;;;13.43;10.40;;;-0.40;99.90;;;;;;4914756;29;20212;-83
2023/03/16 05:17:09;;;;;;;13.57;9.05;;;-0.40;99.90;;;;;;4915698;29;20561;-83
2023/03/16 05:19:35;;;;;;;18.13;9.75;;;-0.30;99.90;;;;;;4917662;29;20377;-83
2023/03/16 05:22:02;;;;;;;20.83;10.75;;;-0.40;99.90;;;;;;4912323;29;20216;-83
2023/03/16 05:24:29;;;;;;;11.82;8.70;;;-0.30;99.90;;;;;;4921693;29;20497;-84
2023/03/16 05:26:56;;;;;;;13.27;9.95;;;-0.20;99.90;;;;;;4922794;29;20208;-83
2023/03/16 05:29:25;;;;;;;17.33;10.93;;;-0.30;99.90;;;;;;4916457;29;20211;-82
2023/03/16 05:31:52;;;;;;;14.60;10.10;;;-0.20;99.90;;;;;;4912821;29;20374;-83
2023/03/16 05:34:20;;;;;;;19.08;11.35;;;0.00;99.90;;;;;;4906610;29;20209;-86
2023/03/16 05:36:47;;;;;;;13.02;9.40;;;0.00;99.90;;;;;;4924683;29;20252;-85
2023/03/16 05:39:16;;;;;;;15.00;10.48;;;0.10;99.90;;;;;;4923389;29;20209;-85
2023/03/16 05:41:43;;;;;;;20.95;14.13;;;0.10;99.90;;;;;;4922416;29;20584;-84
2023/03/16 05:44:10;;;;;;;12.93;10.77;;;0.10;99.90;;;;;;4923018;29;20216;-86
2023/03/16 05:46:37;;;;;;;18.42;9.90;;;0.20;99.90;;;;;;4926210;29;20216;-85
2023/03/16 05:49:05;;;;;;;12.45;7.57;;;0.30;99.90;;;;;;4924005;29;20208;-86
2023/03/16 05:51:32;;;;;;;15.25;9.38;;;0.20;99.90;;;;;;4918872;29;20291;-86
2023/03/16 05:53:59;;;;;;;18.85;10.02;;;0.40;99.90;;;;;;4925177;29;20239;-86
2023/03/16 05:56:27;;;;;;;10.30;8.32;;;0.60;99.90;;;;;;4925318;29;20583;-86
2023/03/16 05:58:55;;;;;;;14.65;8.95;;;0.60;99.90;;;;;;4926720;29;20209;-86
2023/03/16 06:01:25;;;;;;;15.85;8.65;;;0.80;99.90;;;;;;4913563;29;20313;-87
2023/03/16 06:03:53;;;;;;;11.27;9.05;;;1.20;99.90;;;;;;4913503;29;20495;-87
2023/03/16 06:06:24;;;;;;;12.52;7.50;;;1.80;99.90;;;;;;4914473;29;20206;-86
2023/03/16 06:08:51;;;;;;;15.63;5.75;;;2.30;99.90;;;;;;4927164;29;20211;-85
2023/03/16 06:11:18;;;;;;;9.48;6.32;;;2.50;99.90;;;;;;4924113;29;20240;-85
2023/03/16 06:13:48;;;;;;;10.13;5.75;;;2.50;99.90;;;;;;4913018;29;20225;-85
2023/03/16 06:16:15;;;;;;;11.80;6.47;;;2.10;99.90;;;;;;4917248;29;20211;-85
2023/03/16 06:18:42;;;;;;;7.85;4.95;;;2.40;99.90;;;;;;4914569;29;20286;-86
2023/03/16 06:21:10;;;;;;;9.27;5.40;;;3.00;99.90;;;;;;4924925;29;20219;-87
2023/03/16 06:23:40;;;;;;;6.85;5.07;;;4.40;99.90;;;;;;4922488;29;20204;-88
2023/03/16 06:26:09;;;;;;;9.77;4.80;;;5.50;99.90;;;;;;4924391;29;20205;-87
2023/03/16 06:28:47;;;;;;;5.53;4.00;;;6.20;99.90;;;;;;4926315;29;20200;-87
2023/03/16 06:31:16;;;;;;;6.78;4.60;;;6.60;99.90;;;;;;4916488;29;20226;-86
2023/03/16 06:33:43;;;;;;;7.70;3.15;;;6.80;99.90;;;;;;4923946;29;20205;-85
2023/03/16 06:36:10;;;;;;;9.18;4.07;;;7.50;99.90;;;;;;4919356;29;20287;-85
2023/03/16 06:38:37;;;;;;;5.40;3.05;;;8.20;99.90;;;;;;4911555;29;20211;-85
2023/03/16 06:41:04;;;;;;;7.28;4.32;;;7.80;99.90;;;;;;4914720;29;20213;-85
2023/03/16 06:43:32;;;;;;;5.47;4.15;;;8.20;99.90;;;;;;4913103;29;20587;-83
2023/03/16 06:46:00;;;;;;;6.88;3.85;;;8.70;99.90;;;;;;4919595;29;20205;-81
2023/03/16 06:48:27;;;;;;;7.88;3.72;;;8.60;99.90;;;;;;4916787;29;20205;-82
2023/03/16 06:50:54;;;;;;;8.25;3.47;;;8.90;99.90;;;;;;4911487;29;20240;-81
2023/03/16 06:53:21;;;;;;;6.18;5.00;;;9.20;99.90;;;;;;4917172;29;20222;-80
2023/03/16 06:55:48;;;;;;;4.03;3.63;;;8.80;99.90;;;;;;4918613;29;20386;-81
2023/03/16 06:58:15;;;;;;;6.53;4.07;;;8.80;99.90;;;;;;4912797;29;20549;-82
2023/03/16 07:00:42;;;;;;;7.28;4.10;;;9.50;99.90;;;;;;4918345;29;20212;-83
2023/03/16 07:03:09;;;;;;;7.45;4.60;;;10.20;99.90;;;;;;4919690;29;20229;-82
2023/03/16 07:05:36;;;;;;;11.18;6.20;;;10.50;99.90;;;;;;4906401;29;20202;-82
2023/03/16 07:08:03;;;;;;;5.32;3.65;;;10.40;99.90;;;;;;4917050;29;20260;-82
2023/03/16 07:10:31;;;;;;;5.32;4.40;;;11.80;99.90;;;;;;4919766;29;20242;-82
2023/03/16 07:12:57;;;;;;;8.02;4.38;;;13.00;99.90;;;;;;4915487;29;20246;-82
2023/03/16 07:15:25;;;;;;;6.70;4.05;;;13.60;99.90;;;;;;4912382;29;20247;-82
2023/03/16 07:17:53;;;;;;;11.25;3.63;;;14.50;99.90;;;;;;4909200;29;20543;-82
2023/03/16 07:20:20;;;;;;;8.23;5.45;;;15.40;99.90;;;;;;4918668;29;20320;-81
2023/03/16 07:22:49;;;;;;;5.90;3.60;;;16.20;99.90;;;;;;4916564;29;20200;-82
2023/03/16 07:25:16;;;;;;;10.80;5.63;;;16.80;99.90;;;;;;4916826;29;20684;-82
2023/03/16 07:27:45;;;;;;;6.80;3.93;;;15.80;99.90;;;;;;4914445;29;20448;-82
2023/03/16 07:30:13;;;;;;;5.65;4.78;;;14.20;99.90;;;;;;4919165;29;20493;-81
2023/03/16 07:32:40;;;;;;;9.23;5.00;;;13.20;99.90;;;;;;4916986;29;20200;-80
2023/03/16 07:35:10;;;;;;;5.00;3.28;;;13.50;99.90;;;;;;4927015;29;20431;-81
2023/03/16 07:37:37;;;;;;;6.03;3.70;;;13.40;99.90;;;;;;4933547;29;20220;-81
2023/03/16 07:40:06;;;;;;;5.70;3.47;;;13.40;99.90;;;;;;4928274;29;20462;-78
2023/03/16 07:42:34;;;;;;;6.70;3.90;;;13.90;99.90;;;;;;4923023;29;20449;-80
2023/03/16 07:45:02;;;;;;;8.10;4.80;;;14.90;99.90;;;;;;4915402;29;20446;-80
2023/03/16 07:47:30;;;;;;;6.77;6.13;;;16.30;99.90;;;;;;4906381;29;20448;-79
2023/03/16 07:49:57;;;;;;;9.33;4.40;;;16.80;99.90;;;;;;4925819;29;20451;-80
2023/03/16 07:52:24;;;;;;;5.93;3.77;;;16.60;99.20;;;;;;4916663;29;20443;-79
2023/03/16 07:54:51;;;;;;;4.87;3.40;;;15.60;99.90;;;;;;4920267;29;20465;-83
2023/03/16 07:57:19;;;;;;;4.30;3.50;;;15.10;99.90;;;;;;4920679;29;20772;-81
2023/03/16 07:59:46;;;;;;;10.10;4.30;;;15.50;99.90;;;;;;4919502;29;20413;-81
2023/03/16 08:02:15;;;;;;;6.07;3.30;;;15.50;99.90;;;;;;4915380;29;20615;-80
2023/03/16 08:04:43;;;;;;;7.57;4.30;;;16.70;99.20;;;;;;4925407;29;20421;-81
2023/03/16 08:07:12;;;;;;;3.97;3.57;;;16.20;98.70;;;;;;4915159;29;20450;-80
2023/03/16 08:09:39;;;;;;;9.90;3.20;;;16.10;99.30;;;;;;4919664;29;20468;-80
2023/03/16 08:12:06;;;;;;;7.90;3.90;;;16.00;98.60;;;;;;4922569;29;20477;-80
2023/03/16 08:14:34;;;;;;;5.00;3.23;;;15.70;99.80;;;;;;4913251;29;20447;-79
2023/03/16 08:17:03;;;;;;;5.27;2.70;;;15.40;99.10;;;;;;4912254;29;20458;-82
2023/03/16 08:19:31;;;;;;;5.40;3.77;;;14.80;99.90;;;;;;4912284;29;20474;-79
2023/03/16 08:22:00;;;;;;;11.23;4.60;;;15.00;99.50;;;;;;4919139;29;20450;-81
2023/03/16 08:24:28;;;;;;;5.90;2.63;;;14.10;99.90;;;;;;4923082;29;20461;-81
2023/03/16 08:26:56;;;;;;;9.90;4.70;;;14.30;99.90;;;;;;4923098;29;20669;-79
2023/03/16 08:29:24;;;;;;;5.80;3.30;;;15.20;99.90;;;;;;4911132;29;20685;-79
2023/03/16 08:31:57;;;;;;;5.20;2.50;;;16.30;97.90;;;;;;4907106;29;20618;-80
2023/03/16 08:34:25;;;;;;;5.27;2.40;;;17.40;96.40;;;;;;4920910;29;20483;-80
2023/03/16 08:36:52;;;;;;;3.40;2.57;;;17.80;94.90;;;;;;4917884;29;20448;-79
2023/03/16 08:39:20;;;;;;;8.00;3.07;;;16.30;94.70;;;;;;4920133;29;20451;-79
2023/03/16 08:41:47;;;;;;;4.90;3.23;;;16.20;96.60;;;;;;4917210;29;20429;-78
2023/03/16 08:44:14;;;;;;;4.47;2.53;;;16.20;95.90;;;;;;4910272;29;20461;-80
2023/03/16 08:46:41;;;;;;;2.40;2.20;;;16.10;96.10;;;;;;4922917;29;20498;-80
2023/03/16 08:49:08;;;;;;;4.23;2.30;;;15.80;94.80;;;;;;4912142;29;20471;-80
2023/03/16 08:51:35;;;;;;;2.10;1.80;;;15.20;96.10;;;;;;4922135;29;20558;-80
2023/03/16 08:54:02;;;;;;;2.33;1.97;;;15.50;95.70;;;;;;4919433;29;20799;-79
2023/03/16 08:56:29;;;;;;;4.37;2.37;;;15.40;96.00;;;;;;4911379;29;20499;-79
2023/03/16 08:58:57;;;;;;;4.33;1.93;;;15.90;95.10;;;;;;4917065;29;20443;-79
2023/03/16 09:01:26;;;;;;;2.73;1.93;;;14.80;96.20;;;;;;4913772;29;20447;-78
2023/03/16 09:03:53;;;;;;;6.40;3.90;;;15.90;94.50;;;;;;4922220;29;20451;-79
2023/03/16 09:06:21;;;;;;;4.90;2.27;;;16.50;92.80;;;;;;4914368;29;20487;-80
2023/03/16 09:08:48;;;;;;;6.57;2.47;;;15.30;90.90;;;;;;4911650;29;20452;-78
2023/03/16 09:11:17;;;;;;;5.30;1.83;;;14.00;95.60;;;;;;4907941;29;20502;-79
2023/03/16 09:13:46;;;;;;;3.03;1.67;;;14.50;95.60;;;;;;4922318;29;20451;-80
2023/03/16 09:16:14;;;;;;;3.70;2.03;;;15.30;93.90;;;;;;4922221;29;20451;-78
2023/03/16 09:18:42;;;;;;;8.13;2.10;;;14.90;93.30;;;;;;4921296;29;20623;-79
2023/03/16 09:21:12;;;;;;;6.77;1.87;;;15.40;92.80;;;;;;4909898;29;20457;-80
2023/03/16 09:23:41;;;;;;;6.13;3.63;;;15.70;91.90;;;;;;4917536;29;20715;-79
2023/03/16 09:26:09;;;;;;;5.90;1.87;;;15.10;93.30;;;;;;4909591;29;20823;-80
2023/03/16 09:28:37;;;;;;;4.33;2.03;;;15.00;92.60;;;;;;4908602;29;20447;-78
2023/03/16 09:31:05;;;;;;;2.83;1.63;;;15.10;92.90;;;;;;4910867;29;20490;-80
2023/03/16 09:33:34;;;;;;;6.63;2.25;;;14.10;94.10;;;;;;4915024;29;20448;-78
2023/03/16 09:36:01;;;;;;;3.75;1.58;;;13.00;95.50;;;;;;4909175;29;20497;-77
2023/03/16 09:38:30;;;;;;;4.28;1.75;;;11.70;97.10;;;;;;4918300;29;20214;-78
2023/03/16 09:40:59;;;;;;;3.88;1.63;;;10.40;99.90;;;;;;4912124;29;20768;-78
2023/03/16 09:43:53;;;;;;;9.30;2.22;;;9.80;99.90;;;;;;4906207;29;20221;-77
2023/03/16 09:46:30;;;;;;;7.45;2.40;;;9.90;99.90;;;;;;4914491;29;20284;-77
2023/03/16 09:48:59;;;;;;;5.85;2.50;;;10.60;99.90;;;;;;4906988;29;20325;-77
2023/03/16 09:51:42;;;;;;;5.95;2.33;;;10.80;99.90;;;;;;4906916;29;20246;-78
2023/03/16 09:54:21;;;;;;;5.68;2.60;;;10.50;99.90;;;;;;4918737;29;20393;-79
2023/03/16 09:56:50;;;;;;;7.10;1.95;;;10.00;99.90;;;;;;4915340;29;20543;-79
2023/03/16 09:59:21;;;;;;;7.75;2.30;;;9.70;99.90;;;;;;4918457;29;20253;-76
2023/03/16 10:02:06;;;;;;;8.02;2.40;;;9.90;99.90;;;;;;4917086;29;20229;-76
2023/03/16 10:05:09;;;;;;;5.60;1.58;;;10.00;99.90;;;;;;4916648;29;20218;-78
2023/03/16 10:07:51;;;;;;;5.53;2.05;;;10.20;99.90;;;;;;4905175;29;20260;-80
2023/03/16 10:10:37;;;;;;;6.55;1.73;;;10.40;99.90;;;;;;4907013;29;20204;-78
2023/03/16 10:13:12;;;;;;;4.28;2.20;;;10.40;99.90;;;;;;4916931;29;20258;-78
2023/03/16 10:15:39;;;;;;;8.65;2.55;;;10.60;99.90;;;;;;4906315;29;20209;-77
2023/03/16 10:18:16;;;;;;;2.97;1.80;;;10.80;99.90;;;;;;4909809;29;20220;-78
2023/03/16 10:20:45;;;;;;;4.35;1.90;;;11.00;99.90;;;;;;4905532;29;20578;-78
2023/03/16 10:23:23;;;;;;;4.60;2.28;;;10.70;99.90;;;;;;4918342;29;20378;-76
2023/03/16 10:25:53;;;;;;;7.57;2.50;;;10.60;99.90;;;;;;4909893;29;20208;-76
2023/03/16 10:28:27;;;;;;;8.38;2.08;;;10.30;99.90;;;;;;4918458;29;20526;-77
2023/03/16 10:30:56;;;;;;;4.25;2.58;;;10.30;99.90;;;;;;4907859;29;20409;-78
2023/03/16 10:33:35;;;;;;;7.60;3.08;;;10.20;99.90;;;;;;4919201;29;20413;-78
2023/03/16 10:36:05;;;;;;;10.57;2.58;;;10.10;99.90;;;;;;4919753;29;20236;-77
2023/03/16 10:38:38;;;;;;;3.60;2.20;;;9.60;99.90;;;;;;4914992;29;20200;-77
2023/03/16 10:41:28;;;;;;;10.63;3.38;;;9.50;99.90;;;;;;4912477;29;20213;-78
2023/03/16 10:44:07;;;;;;;3.30;2.45;;;9.40;99.90;;;;;;4917443;29;20216;-77
2023/03/16 10:46:43;;;;;;;4.00;2.25;;;9.60;99.90;;;;;;4920095;29;20574;-79
2023/03/16 10:49:40;;;;;;;4.93;1.75;;;9.60;99.90;;;;;;4917253;29;20208;-78
2023/03/16 10:52:28;;;;;;;2.53;1.88;;;9.80;99.90;;;;;;4913214;29;20236;-77
2023/03/16 10:55:00;;;;;;;3.08;1.60;;;10.00;99.90;;;;;;4915831;29;20425;-78
2023/03/16 10:57:32;;;;;;;8.57;3.40;;;10.00;99.90;;;;;;4908927;29;20229;-78
2023/03/16 11:00:08;;;;;;;4.00;2.75;;;10.30;99.90;;;;;;4912754;29;20536;-76
2023/03/16 11:02:35;;;;;;;8.52;2.22;;;10.50;99.90;;;;;;4917274;29;20241;-80
2023/03/16 11:05:16;;;;;;;4.05;1.80;;;10.50;99.90;;;;;;4913490;29;20211;-77
2023/03/16 11:08:00;;;;;;;3.60;1.75;;;10.20;99.90;;;;;;4914082;29;20365;-78
2023/03/16 11:10:34;;;;;;;4.28;1.30;;;10.00;99.90;;;;;;4918815;29;20212;-81
2023/03/16 11:13:17;;;;;;;6.15;3.28;;;10.00;99.90;;;;;;4914145;29;20509;-78
2023/03/16 11:15:50;;;;;;;6.38;1.75;;;10.20;99.90;;;;;;4919989;29;20552;-79
2023/03/16 11:18:42;;;;;;;6.03;2.30;;;10.40;99.90;;;;;;4913327;29;20256;-77
2023/03/16 11:21:19;;;;;;;3.55;1.90;;;10.40;99.90;;;;;;4912032;29;20347;-80
2023/03/16 11:23:54;;;;;;;3.15;1.70;;;10.00;99.90;;;;;;4916114;29;20214;-79
2023/03/16 11:26:34;;;;;;;4.63;1.60;;;10.00;99.90;;;;;;4911119;29;20217;-78
2023/03/16 11:29:16;;;;;;;5.25;1.60;;;10.10;99.90;;;;;;4907442;29;20252;-77
2023/03/16 11:31:52;;;;;;;1.65;1.17;;;10.10;99.90;;;;;;4918577;29;20228;-79
2023/03/16 11:34:27;;;;;;;4.05;1.50;;;9.90;99.90;;;;;;4918502;29;20268;-78
2023/03/16 11:36:58;;;;;;;7.90;2.58;;;9.70;99.90;;;;;;4917175;29;20252;-78
2023/03/16 11:39:39;;;;;;;6.53;1.77;;;9.80;99.90;;;;;;4917298;29;20216;-77
2023/03/16 11:42:09;;;;;;;2.05;1.48;;;10.00;99.90;;;;;;4917348;29;20224;-79
2023/03/16 11:44:48;;;;;;;3.53;1.95;;;10.30;99.90;;;;;;4909878;29;20298;-78
2023/03/16 11:47:41;;;;;;;2.28;1.70;;;10.40;99.90;;;;;;4906032;29;20291;-78
2023/03/16 11:50:35;;;;;;;4.22;1.85;;;10.20;99.90;;;;;;4908007;29;20487;-79
2023/03/16 11:53:14;;;;;;;5.50;2.60;;;10.20;99.90;;;;;;4915048;29;20299;-79
2023/03/16 11:56:10;;;;;;;2.38;1.85;;;10.10;99.90;;;;;;4906153;29;20653;-78
2023/03/16 11:59:13;;;;;;;4.35;2.10;;;9.90;99.90;;;;;;4908506;29;20411;-80
2023/03/16 12:01:51;;;;;;;3.33;1.83;;;10.00;99.90;;;;;;4911677;29;20567;-78
2023/03/16 12:04:58;;;;;;;3.25;2.30;;;10.00;99.90;;;;;;4910942;29;20235;-78
2023/03/16 12:07:39;;;;;;;4.68;2.50;;;9.90;99.90;;;;;;4901371;29;20206;-77
2023/03/16 12:10:40;;;;;;;5.60;1.90;;;9.80;99.90;;;;;;4923590;29;20196;-78
2023/03/16 12:13:29;;;;;;;2.60;1.95;;;9.80;99.90;;;;;;4916691;29;20235;-78
2023/03/16 12:16:05;;;;;;;1.75;1.60;;;10.10;99.90;;;;;;4922310;29;20206;-78
2023/03/16 12:18:47;;;;;;;4.45;3.03;;;10.20;99.90;;;;;;4930149;29;20256;-80
2023/03/16 12:21:19;;;;;;;3.50;2.35;;;10.40;99.90;;;;;;4912151;29;20208;-78
2023/03/16 12:23:58;;;;;;;4.07;2.22;;;10.30;99.90;;;;;;4911926;29;20209;-78
2023/03/16 12:26:35;;;;;;;11.43;2.70;;;10.20;99.90;;;;;;4785866;29;20215;-78
2023/03/16 12:29:15;;;;;;;2.97;1.70;;;10.00;99.90;;;;;;4919004;29;20209;-80
2023/03/16 12:31:54;;;;;;;1.55;1.45;;;9.90;99.90;;;;;;4916778;29;20221;-79
2023/03/16 12:34:31;;;;;;;3.83;2.15;;;9.70;99.90;;;;;;4916600;29;20227;-78
2023/03/16 12:37:18;;;;;;;5.55;2.25;;;9.70;99.90;;;;;;4912552;29;20200;-78
2023/03/16 12:39:51;;;;;;;11.15;1.92;;;9.70;99.90;;;;;;4901743;29;20252;-78
2023/03/16 12:42:28;;;;;;;2.13;2.03;;;9.80;99.90;;;;;;4915085;29;20280;-77
2023/03/16 12:45:01;;;;;;;3.13;1.80;;;10.00;99.90;;;;;;4917226;29;20204;-79
2023/03/16 12:47:35;;;;;;;6.28;1.85;;;10.10;99.90;;;;;;4912972;29;20204;-80
2023/03/16 12:50:14;;;;;;;6.03;2.30;;;10.30;99.90;;;;;;4914971;29;20599;-79
2023/03/16 12:52:43;;;;;;;5.68;1.83;;;10.20;99.90;;;;;;4922834;29;20560;-80
2023/03/16 12:55:26;;;;;;;6.78;1.98;;;9.70;99.90;;;;;;4922005;29;20232;-79
2023/03/16 12:58:05;;;;;;;3.70;1.42;;;9.40;99.90;;;;;;4923217;29;20218;-78
2023/03/16 13:00:34;;;;;;;5.75;1.73;;;9.40;99.90;;;;;;4918407;29;20265;-78
2023/03/16 13:03:05;;;;;;;7.40;3.00;;;9.40;99.90;;;;;;4907494;29;20220;-79